sensor_id;sensor_type;location;lat;lon;timestamp;pressure;altitude;pressure_sealevel;temperature;humidity
78892;BME280;68368;51.728;5.248;2024-03-23T00:55:00;101096.33;;;6.04;100.00
78892;BME280;68368;51.728;5.248;2024-03-23T00:57:04;101096.34;;;6.05;100.00
78892;BME280;68368;51.728;5.248;2024-03-23T00:59:09;101091.93;;;6.05;100.00
78892;BME280;68368;51.728;5.248;2024-03-23T01:01:14;101079.60;;;6.05;100.00
78892;BME280;68368;51.728;5.248;2024-03-23T01:03:20;101071.70;;;6.06;100.00
78892;BME280;68368;51.728;5.248;2024-03-23T01:05:24;101066.92;;;6.05;100.00
78892;BME280;68368;51.728;5.248;2024-03-23T01:07:29;101060.23;;;6.05;100.00
78892;BME280;68368;51.728;5.248;2024-03-23T01:09:33;101056.86;;;6.05;100.00
78892;BME280;68368;51.728;5.248;2024-03-23T01:11:38;101060.73;;;6.04;100.00
78892;BME280;68368;51.728;5.248;2024-03-23T01:13:44;101061.79;;;6.04;100.00
78892;BME280;68368;51.728;5.248;2024-03-23T01:15:55;101054.56;;;6.03;100.00
78892;BME280;68368;51.728;5.248;2024-03-23T01:18:01;101048.21;;;6.03;100.00
78892;BME280;68368;51.728;5.248;2024-03-23T01:20:09;101045.74;;;6.03;100.00
78892;BME280;68368;51.728;5.248;2024-03-23T01:22:14;101045.40;;;6.03;100.00
78892;BME280;68368;51.728;5.248;2024-03-23T01:24:19;101042.77;;;6.02;100.00
78892;BME280;68368;51.728;5.248;2024-03-23T01:26:24;101047.34;;;6.03;100.00
78892;BME280;68368;51.728;5.248;2024-03-23T01:28:29;101043.64;;;6.04;100.00
78892;BME280;68368;51.728;5.248;2024-03-23T01:30:35;101043.10;;;6.04;100.00
78892;BME280;68368;51.728;5.248;2024-03-23T01:32:39;101045.75;;;6.04;100.00
78892;BME280;68368;51.728;5.248;2024-03-23T01:34:44;101048.05;;;6.04;100.00
78892;BME280;68368;51.728;5.248;2024-03-23T01:36:48;101049.98;;;6.03;100.00
78892;BME280;68368;51.728;5.248;2024-03-23T01:38:53;101049.44;;;6.02;100.00
78892;BME280;68368;51.728;5.248;2024-03-23T01:41:00;101049.60;;;6.01;100.00
78892;BME280;68368;51.728;5.248;2024-03-23T01:43:08;101048.36;;;6.00;100.00
78892;BME280;68368;51.728;5.248;2024-03-23T01:45:12;101044.46;;;5.99;100.00
78892;BME280;68368;51.728;5.248;2024-03-23T01:47:17;101043.04;;;5.97;100.00
78892;BME280;68368;51.728;5.248;2024-03-23T01:49:23;101046.20;;;5.96;100.00
78892;BME280;68368;51.728;5.248;2024-03-23T01:51:28;101036.30;;;5.94;100.00
78892;BME280;68368;51.728;5.248;2024-03-23T01:53:33;101032.92;;;5.93;100.00
78892;BME280;68368;51.728;5.248;2024-03-23T01:55:38;101035.00;;;5.90;100.00
78892;BME280;68368;51.728;5.248;2024-03-23T01:57:42;101032.86;;;5.89;100.00
78892;BME280;68368;51.728;5.248;2024-03-23T01:59:47;101029.30;;;5.87;100.00
78892;BME280;68368;51.728;5.248;2024-03-23T02:01:52;101025.95;;;5.86;100.00
78892;BME280;68368;51.728;5.248;2024-03-23T02:03:57;101019.96;;;5.85;100.00
78892;BME280;68368;51.728;5.248;2024-03-23T02:06:02;101022.94;;;5.85;100.00
78892;BME280;68368;51.728;5.248;2024-03-23T02:08:07;101026.11;;;5.85;100.00
78892;BME280;68368;51.728;5.248;2024-03-23T02:10:13;101026.45;;;5.84;100.00
78892;BME280;68368;51.728;5.248;2024-03-23T02:12:17;101025.58;;;5.85;100.00
78892;BME280;68368;51.728;5.248;2024-03-23T02:14:25;101027.34;;;5.84;100.00
78892;BME280;68368;51.728;5.248;2024-03-23T02:16:29;101022.58;;;5.84;100.00
78892;BME280;68368;51.728;5.248;2024-03-23T02:18:34;101017.98;;;5.84;100.00
78892;BME280;68368;51.728;5.248;2024-03-23T02:20:39;101012.71;;;5.84;100.00
78892;BME280;68368;51.728;5.248;2024-03-23T02:22:44;101006.71;;;5.84;100.00
78892;BME280;68368;51.728;5.248;2024-03-23T02:24:48;101007.41;;;5.84;100.00
78892;BME280;68368;51.728;5.248;2024-03-23T02:26:56;101009.36;;;5.84;100.00
78892;BME280;68368;51.728;5.248;2024-03-23T02:29:01;101008.84;;;5.84;100.00
78892;BME280;68368;51.728;5.248;2024-03-23T02:31:06;101007.60;;;5.84;100.00
78892;BME280;68368;51.728;5.248;2024-03-23T02:33:14;101011.83;;;5.83;100.00
78892;BME280;68368;51.728;5.248;2024-03-23T02:35:19;101012.88;;;5.82;100.00
78892;BME280;68368;51.728;5.248;2024-03-23T02:37:23;101013.73;;;5.80;100.00
78892;BME280;68368;51.728;5.248;2024-03-23T02:39:27;101012.84;;;5.80;100.00
78892;BME280;68368;51.728;5.248;2024-03-23T02:41:32;101017.23;;;5.78;100.00
78892;BME280;68368;51.728;5.248;2024-03-23T02:43:37;101018.09;;;5.77;100.00
78892;BME280;68368;51.728;5.248;2024-03-23T02:45:42;101017.71;;;5.76;100.00
78892;BME280;68368;51.728;5.248;2024-03-23T02:47:47;101015.59;;;5.74;100.00
78892;BME280;68368;51.728;5.248;2024-03-23T02:49:51;101013.27;;;5.72;100.00
78892;BME280;68368;51.728;5.248;2024-03-23T02:51:56;101013.41;;;5.69;100.00
78892;BME280;68368;51.728;5.248;2024-03-23T02:54:01;101016.88;;;5.65;100.00
78892;BME280;68368;51.728;5.248;2024-03-23T02:56:07;101018.92;;;5.60;100.00
78892;BME280;68368;51.728;5.248;2024-03-23T02:58:11;101013.23;;;5.54;100.00
78892;BME280;68368;51.728;5.248;2024-03-23T03:00:19;101012.27;;;5.49;100.00
78892;BME280;68368;51.728;5.248;2024-03-23T03:02:23;101014.46;;;5.42;100.00
78892;BME280;68368;51.728;5.248;2024-03-23T03:04:28;101016.15;;;5.36;100.00
78892;BME280;68368;51.728;5.248;2024-03-23T03:06:33;101016.56;;;5.29;100.00
78892;BME280;68368;51.728;5.248;2024-03-23T03:08:38;101020.52;;;5.22;100.00
78892;BME280;68368;51.728;5.248;2024-03-23T03:10:43;101022.39;;;5.16;100.00
78892;BME280;68368;51.728;5.248;2024-03-23T03:12:48;101023.88;;;5.12;100.00
78892;BME280;68368;51.728;5.248;2024-03-23T03:14:55;101022.41;;;5.07;100.00
78892;BME280;68368;51.728;5.248;2024-03-23T03:17:00;101022.15;;;5.02;100.00
78892;BME280;68368;51.728;5.248;2024-03-23T03:19:04;101019.09;;;4.97;100.00
78892;BME280;68368;51.728;5.248;2024-03-23T03:21:09;101019.38;;;4.94;100.00
78892;BME280;68368;51.728;5.248;2024-03-23T03:23:13;101014.03;;;4.89;100.00
78892;BME280;68368;51.728;5.248;2024-03-23T03:25:17;101021.36;;;4.85;100.00
78892;BME280;68368;51.728;5.248;2024-03-23T03:27:22;101016.17;;;4.80;100.00
78892;BME280;68368;51.728;5.248;2024-03-23T03:29:26;101016.27;;;4.75;100.00
78892;BME280;68368;51.728;5.248;2024-03-23T03:31:31;101014.95;;;4.69;100.00
78892;BME280;68368;51.728;5.248;2024-03-23T03:33:36;101015.91;;;4.64;100.00
78892;BME280;68368;51.728;5.248;2024-03-23T03:35:41;101013.55;;;4.60;100.00
78892;BME280;68368;51.728;5.248;2024-03-23T03:37:46;101015.42;;;4.55;100.00
78892;BME280;68368;51.728;5.248;2024-03-23T03:39:51;101013.93;;;4.51;100.00
78892;BME280;68368;51.728;5.248;2024-03-23T03:41:55;101012.45;;;4.47;100.00
78892;BME280;68368;51.728;5.248;2024-03-23T03:44:00;101011.33;;;4.43;100.00
78892;BME280;68368;51.728;5.248;2024-03-23T03:46:05;101010.55;;;4.39;100.00
78892;BME280;68368;51.728;5.248;2024-03-23T03:48:10;101010.98;;;4.35;100.00
78892;BME280;68368;51.728;5.248;2024-03-23T03:50:15;101004.96;;;4.30;100.00
78892;BME280;68368;51.728;5.248;2024-03-23T03:52:19;101005.59;;;4.26;100.00
78892;BME280;68368;51.728;5.248;2024-03-23T03:54:24;101002.02;;;4.23;100.00
78892;BME280;68368;51.728;5.248;2024-03-23T03:56:29;101005.28;;;4.19;100.00
78892;BME280;68368;51.728;5.248;2024-03-23T03:58:33;101004.70;;;4.17;100.00
78892;BME280;68368;51.728;5.248;2024-03-23T04:00:38;101003.94;;;4.13;100.00
78892;BME280;68368;51.728;5.248;2024-03-23T04:02:42;101000.53;;;4.09;100.00
78892;BME280;68368;51.728;5.248;2024-03-23T04:04:47;100999.42;;;4.06;100.00
78892;BME280;68368;51.728;5.248;2024-03-23T04:06:59;101000.59;;;4.03;100.00
78892;BME280;68368;51.728;5.248;2024-03-23T04:09:04;100996.85;;;4.01;100.00
78892;BME280;68368;51.728;5.248;2024-03-23T04:11:08;100993.29;;;3.98;100.00
78892;BME280;68368;51.728;5.248;2024-03-23T04:13:13;100993.08;;;3.97;100.00
78892;BME280;68368;51.728;5.248;2024-03-23T04:15:18;100990.58;;;3.94;100.00
78892;BME280;68368;51.728;5.248;2024-03-23T04:17:22;100989.45;;;3.91;100.00
78892;BME280;68368;51.728;5.248;2024-03-23T04:19:27;100989.92;;;3.88;100.00
78892;BME280;68368;51.728;5.248;2024-03-23T04:21:31;100987.39;;;3.84;100.00
78892;BME280;68368;51.728;5.248;2024-03-23T04:23:36;100993.13;;;3.81;100.00
78892;BME280;68368;51.728;5.248;2024-03-23T04:25:40;100995.36;;;3.78;100.00
78892;BME280;68368;51.728;5.248;2024-03-23T04:27:45;100994.77;;;3.75;100.00
78892;BME280;68368;51.728;5.248;2024-03-23T04:29:50;100993.13;;;3.72;100.00
78892;BME280;68368;51.728;5.248;2024-03-23T04:31:55;100993.77;;;3.69;100.00
78892;BME280;68368;51.728;5.248;2024-03-23T04:34:00;100991.60;;;3.66;100.00
78892;BME280;68368;51.728;5.248;2024-03-23T04:36:05;100997.17;;;3.64;100.00
78892;BME280;68368;51.728;5.248;2024-03-23T04:38:10;100992.19;;;3.60;100.00
78892;BME280;68368;51.728;5.248;2024-03-23T04:40:14;100992.48;;;3.58;100.00
78892;BME280;68368;51.728;5.248;2024-03-23T04:42:19;100997.34;;;3.55;100.00
78892;BME280;68368;51.728;5.248;2024-03-23T04:44:23;100995.89;;;3.53;100.00
78892;BME280;68368;51.728;5.248;2024-03-23T04:46:28;100998.80;;;3.49;100.00
78892;BME280;68368;51.728;5.248;2024-03-23T04:48:32;100995.02;;;3.45;100.00
78892;BME280;68368;51.728;5.248;2024-03-23T04:50:38;100992.67;;;3.43;100.00
78892;BME280;68368;51.728;5.248;2024-03-23T04:52:42;100996.30;;;3.39;100.00
78892;BME280;68368;51.728;5.248;2024-03-23T04:54:47;100988.15;;;3.35;100.00
78892;BME280;68368;51.728;5.248;2024-03-23T04:56:52;100984.59;;;3.33;100.00
78892;BME280;68368;51.728;5.248;2024-03-23T04:58:56;100983.67;;;3.31;100.00
78892;BME280;68368;51.728;5.248;2024-03-23T05:01:01;100973.95;;;3.28;100.00
78892;BME280;68368;51.728;5.248;2024-03-23T05:03:06;100973.73;;;3.26;100.00
78892;BME280;68368;51.728;5.248;2024-03-23T05:05:10;100978.95;;;3.23;100.00
78892;BME280;68368;51.728;5.248;2024-03-23T05:07:15;100977.31;;;3.21;100.00
78892;BME280;68368;51.728;5.248;2024-03-23T05:09:19;100976.73;;;3.19;100.00
78892;BME280;68368;51.728;5.248;2024-03-23T05:11:24;100982.48;;;3.17;100.00
78892;BME280;68368;51.728;5.248;2024-03-23T05:13:28;100985.26;;;3.15;100.00
78892;BME280;68368;51.728;5.248;2024-03-23T05:15:33;100983.64;;;3.14;100.00
78892;BME280;68368;51.728;5.248;2024-03-23T05:17:37;100977.31;;;3.13;100.00
78892;BME280;68368;51.728;5.248;2024-03-23T05:19:42;100979.23;;;3.12;100.00
78892;BME280;68368;51.728;5.248;2024-03-23T05:21:46;100978.83;;;3.11;100.00
78892;BME280;68368;51.728;5.248;2024-03-23T05:23:51;100979.68;;;3.10;100.00
78892;BME280;68368;51.728;5.248;2024-03-23T05:25:56;100981.92;;;3.08;100.00
78892;BME280;68368;51.728;5.248;2024-03-23T05:28:00;100982.79;;;3.08;100.00
78892;BME280;68368;51.728;5.248;2024-03-23T05:30:06;100985.40;;;3.06;100.00
78892;BME280;68368;51.728;5.248;2024-03-23T05:32:11;100989.05;;;3.05;100.00
78892;BME280;68368;51.728;5.248;2024-03-23T05:34:16;100990.25;;;3.04;100.00
78892;BME280;68368;51.728;5.248;2024-03-23T05:36:20;100992.17;;;3.03;100.00
78892;BME280;68368;51.728;5.248;2024-03-23T05:38:25;100992.86;;;3.03;100.00
78892;BME280;68368;51.728;5.248;2024-03-23T05:40:30;100993.73;;;3.03;100.00
78892;BME280;68368;51.728;5.248;2024-03-23T05:42:34;100990.42;;;3.04;100.00
78892;BME280;68368;51.728;5.248;2024-03-23T05:44:38;100990.48;;;3.06;100.00
78892;BME280;68368;51.728;5.248;2024-03-23T05:46:43;100994.40;;;3.09;100.00
78892;BME280;68368;51.728;5.248;2024-03-23T05:48:48;101002.91;;;3.13;100.00
78892;BME280;68368;51.728;5.248;2024-03-23T05:50:53;100995.67;;;3.19;100.00
78892;BME280;68368;51.728;5.248;2024-03-23T05:52:57;100993.98;;;3.29;100.00
78892;BME280;68368;51.728;5.248;2024-03-23T05:55:02;100991.42;;;3.41;100.00
78892;BME280;68368;51.728;5.248;2024-03-23T05:57:06;100989.56;;;3.53;100.00
78892;BME280;68368;51.728;5.248;2024-03-23T05:59:11;100983.09;;;3.62;100.00
78892;BME280;68368;51.728;5.248;2024-03-23T06:01:15;100988.89;;;3.71;100.00
78892;BME280;68368;51.728;5.248;2024-03-23T06:03:20;100983.52;;;3.83;100.00
78892;BME280;68368;51.728;5.248;2024-03-23T06:05:24;100985.31;;;3.95;100.00
78892;BME280;68368;51.728;5.248;2024-03-23T06:07:29;100983.70;;;4.31;100.00
78892;BME280;68368;51.728;5.248;2024-03-23T06:09:33;100979.55;;;4.77;100.00
78892;BME280;68368;51.728;5.248;2024-03-23T06:11:38;100978.73;;;5.16;100.00
78892;BME280;68368;51.728;5.248;2024-03-23T06:13:42;100979.48;;;5.61;100.00
78892;BME280;68368;51.728;5.248;2024-03-23T06:15:47;100982.31;;;6.03;100.00
78892;BME280;68368;51.728;5.248;2024-03-23T06:17:51;100982.70;;;6.43;100.00
78892;BME280;68368;51.728;5.248;2024-03-23T06:19:55;100984.27;;;6.85;100.00
78892;BME280;68368;51.728;5.248;2024-03-23T06:22:00;100984.73;;;7.26;99.56
78892;BME280;68368;51.728;5.248;2024-03-23T06:24:05;100983.31;;;7.61;97.11
78892;BME280;68368;51.728;5.248;2024-03-23T06:26:10;100983.80;;;7.96;95.47
78892;BME280;68368;51.728;5.248;2024-03-23T06:28:14;100984.35;;;8.08;93.52
78892;BME280;68368;51.728;5.248;2024-03-23T06:30:19;100984.70;;;8.05;92.00
78892;BME280;68368;51.728;5.248;2024-03-23T06:32:23;100979.67;;;7.77;91.90
78892;BME280;68368;51.728;5.248;2024-03-23T06:34:28;100975.48;;;7.49;91.87
78892;BME280;68368;51.728;5.248;2024-03-23T06:36:32;100982.25;;;7.26;92.25
78892;BME280;68368;51.728;5.248;2024-03-23T06:38:37;100976.99;;;7.03;92.80
78892;BME280;68368;51.728;5.248;2024-03-23T06:40:42;100981.95;;;6.81;92.95
78892;BME280;68368;51.728;5.248;2024-03-23T06:42:46;100977.05;;;6.63;93.54
78892;BME280;68368;51.728;5.248;2024-03-23T06:44:51;100979.77;;;6.50;93.96
78892;BME280;68368;51.728;5.248;2024-03-23T06:46:55;100983.98;;;6.49;94.60
78892;BME280;68368;51.728;5.248;2024-03-23T06:49:00;100981.92;;;6.55;95.07
78892;BME280;68368;51.728;5.248;2024-03-23T06:51:05;100986.23;;;6.86;95.31
78892;BME280;68368;51.728;5.248;2024-03-23T06:53:09;100981.02;;;6.99;94.68
78892;BME280;68368;51.728;5.248;2024-03-23T06:55:14;100984.36;;;6.96;94.31
78892;BME280;68368;51.728;5.248;2024-03-23T06:57:18;100983.70;;;7.03;93.99
78892;BME280;68368;51.728;5.248;2024-03-23T06:59:23;100987.28;;;7.10;93.71
78892;BME280;68368;51.728;5.248;2024-03-23T07:01:27;100984.05;;;7.31;93.47
78892;BME280;68368;51.728;5.248;2024-03-23T07:03:32;100983.63;;;7.93;92.06
78892;BME280;68368;51.728;5.248;2024-03-23T07:05:36;100982.28;;;8.30;90.57
78892;BME280;68368;51.728;5.248;2024-03-23T07:07:41;100981.98;;;8.72;88.48
78892;BME280;68368;51.728;5.248;2024-03-23T07:09:45;100977.70;;;9.12;86.82
78892;BME280;68368;51.728;5.248;2024-03-23T07:11:50;100979.50;;;8.91;85.60
78892;BME280;68368;51.728;5.248;2024-03-23T07:13:55;100982.48;;;9.07;85.48
78892;BME280;68368;51.728;5.248;2024-03-23T07:16:00;100979.48;;;9.68;84.57
78892;BME280;68368;51.728;5.248;2024-03-23T07:18:05;100981.13;;;9.93;81.88
78892;BME280;68368;51.728;5.248;2024-03-23T07:20:11;100980.06;;;9.93;81.97
78892;BME280;68368;51.728;5.248;2024-03-23T07:22:16;100974.29;;;10.40;80.23
78892;BME280;68368;51.728;5.248;2024-03-23T07:24:20;100972.82;;;10.91;79.14
78892;BME280;68368;51.728;5.248;2024-03-23T07:26:25;100969.71;;;11.35;76.86
78892;BME280;68368;51.728;5.248;2024-03-23T07:28:29;100973.88;;;11.74;75.53
78892;BME280;68368;51.728;5.248;2024-03-23T07:30:34;100973.27;;;12.08;75.08
78892;BME280;68368;51.728;5.248;2024-03-23T07:32:38;100975.58;;;12.44;74.32
78892;BME280;68368;51.728;5.248;2024-03-23T07:34:43;100972.27;;;12.72;72.68
78892;BME280;68368;51.728;5.248;2024-03-23T07:36:47;100967.77;;;12.96;71.72
78892;BME280;68368;51.728;5.248;2024-03-23T07:38:52;100965.82;;;13.14;71.22
78892;BME280;68368;51.728;5.248;2024-03-23T07:41:08;100969.30;;;13.20;70.80
78892;BME280;68368;51.728;5.248;2024-03-23T07:43:13;100969.23;;;12.73;66.28
78892;BME280;68368;51.728;5.248;2024-03-23T07:45:17;100970.86;;;12.26;67.78
78892;BME280;68368;51.728;5.248;2024-03-23T07:47:22;100975.27;;;11.91;67.44
78892;BME280;68368;51.728;5.248;2024-03-23T07:49:27;100974.18;;;11.64;68.00
78892;BME280;68368;51.728;5.248;2024-03-23T07:51:31;100972.48;;;11.55;68.44
78892;BME280;68368;51.728;5.248;2024-03-23T07:53:36;100971.04;;;11.44;69.38
78892;BME280;68368;51.728;5.248;2024-03-23T07:55:41;100973.48;;;11.61;68.69
78892;BME280;68368;51.728;5.248;2024-03-23T07:57:46;100971.41;;;11.57;68.47
78892;BME280;68368;51.728;5.248;2024-03-23T07:59:50;100969.89;;;11.50;68.45
78892;BME280;68368;51.728;5.248;2024-03-23T08:01:55;100975.73;;;11.52;69.07
78892;BME280;68368;51.728;5.248;2024-03-23T08:03:59;100972.88;;;11.53;69.11
78892;BME280;68368;51.728;5.248;2024-03-23T08:06:12;100970.98;;;11.64;69.41
78892;BME280;68368;51.728;5.248;2024-03-23T08:08:17;100973.98;;;11.80;68.72
78892;BME280;68368;51.728;5.248;2024-03-23T08:10:21;100972.91;;;11.95;67.45
78892;BME280;68368;51.728;5.248;2024-03-23T08:12:26;100968.90;;;12.02;66.10
78892;BME280;68368;51.728;5.248;2024-03-23T08:14:30;100977.10;;;12.01;67.65
78892;BME280;68368;51.728;5.248;2024-03-23T08:16:35;100968.77;;;12.23;67.54
78892;BME280;68368;51.728;5.248;2024-03-23T08:18:39;100964.45;;;12.39;65.63
78892;BME280;68368;51.728;5.248;2024-03-23T08:20:44;100962.23;;;12.44;65.02
78892;BME280;68368;51.728;5.248;2024-03-23T08:22:48;100963.70;;;12.53;65.48
78892;BME280;68368;51.728;5.248;2024-03-23T08:24:53;100967.23;;;12.31;64.86
78892;BME280;68368;51.728;5.248;2024-03-23T08:26:58;100959.65;;;11.89;63.35
78892;BME280;68368;51.728;5.248;2024-03-23T08:29:03;100960.83;;;11.51;64.83
78892;BME280;68368;51.728;5.248;2024-03-23T08:31:10;100968.59;;;11.55;66.26
78892;BME280;68368;51.728;5.248;2024-03-23T08:33:15;100966.73;;;11.76;65.63
78892;BME280;68368;51.728;5.248;2024-03-23T08:35:19;100966.59;;;12.01;65.22
78892;BME280;68368;51.728;5.248;2024-03-23T08:37:24;100970.65;;;12.29;64.91
78892;BME280;68368;51.728;5.248;2024-03-23T08:39:33;100974.02;;;12.30;65.75
78892;BME280;68368;51.728;5.248;2024-03-23T08:41:38;100976.77;;;11.84;65.61
78892;BME280;68368;51.728;5.248;2024-03-23T08:43:43;100986.48;;;10.93;64.98
78892;BME280;68368;51.728;5.248;2024-03-23T08:45:47;100983.39;;;10.00;68.11
78892;BME280;68368;51.728;5.248;2024-03-23T08:47:52;100979.25;;;9.25;70.68
78892;BME280;68368;51.728;5.248;2024-03-23T08:49:58;100982.88;;;8.65;73.49
78892;BME280;68368;51.728;5.248;2024-03-23T08:52:03;100982.08;;;8.19;75.46
78892;BME280;68368;51.728;5.248;2024-03-23T08:54:10;100983.76;;;7.84;76.98
78892;BME280;68368;51.728;5.248;2024-03-23T08:56:14;100980.83;;;7.55;78.74
78892;BME280;68368;51.728;5.248;2024-03-23T08:58:19;100983.02;;;7.36;80.20
78892;BME280;68368;51.728;5.248;2024-03-23T09:00:35;100979.66;;;7.35;82.59
78892;BME280;68368;51.728;5.248;2024-03-23T09:02:40;100974.47;;;7.58;84.51
78892;BME280;68368;51.728;5.248;2024-03-23T09:04:53;100977.94;;;7.88;85.88
78892;BME280;68368;51.728;5.248;2024-03-23T09:06:57;100970.97;;;8.28;86.70
78892;BME280;68368;51.728;5.248;2024-03-23T09:09:05;100968.55;;;8.65;86.06
78892;BME280;68368;51.728;5.248;2024-03-23T09:11:11;100960.90;;;9.00;83.00
78892;BME280;68368;51.728;5.248;2024-03-23T09:13:16;100957.09;;;9.36;80.66
78892;BME280;68368;51.728;5.248;2024-03-23T09:15:21;100957.09;;;9.77;78.50
78892;BME280;68368;51.728;5.248;2024-03-23T09:17:26;100955.55;;;10.02;77.00
78892;BME280;68368;51.728;5.248;2024-03-23T09:19:31;100953.79;;;9.98;75.79
78892;BME280;68368;51.728;5.248;2024-03-23T09:21:36;100949.75;;;9.92;75.18
78892;BME280;68368;51.728;5.248;2024-03-23T09:23:41;100947.70;;;9.79;72.42
78892;BME280;68368;51.728;5.248;2024-03-23T09:25:47;100951.14;;;9.62;72.73
78892;BME280;68368;51.728;5.248;2024-03-23T09:27:55;100953.80;;;9.62;73.80
78892;BME280;68368;51.728;5.248;2024-03-23T09:30:01;100950.73;;;9.74;71.96
78892;BME280;68368;51.728;5.248;2024-03-23T09:32:07;100950.30;;;9.89;72.81
78892;BME280;68368;51.728;5.248;2024-03-23T09:34:11;100947.63;;;10.23;72.96
78892;BME280;68368;51.728;5.248;2024-03-23T09:36:16;100953.66;;;10.69;73.49
78892;BME280;68368;51.728;5.248;2024-03-23T09:38:20;100940.95;;;11.16;73.55
78892;BME280;68368;51.728;5.248;2024-03-23T09:40:25;100937.91;;;11.62;71.42
78892;BME280;68368;51.728;5.248;2024-03-23T09:42:29;100941.30;;;11.90;68.40
78892;BME280;68368;51.728;5.248;2024-03-23T09:44:34;100945.90;;;11.92;66.78
78892;BME280;68368;51.728;5.248;2024-03-23T09:46:39;100946.04;;;11.53;63.60
78892;BME280;68368;51.728;5.248;2024-03-23T09:48:45;100946.77;;;11.02;63.59
78892;BME280;68368;51.728;5.248;2024-03-23T09:50:51;100951.64;;;10.57;65.03
78892;BME280;68368;51.728;5.248;2024-03-23T09:52:55;100952.85;;;10.38;66.69
78892;BME280;68368;51.728;5.248;2024-03-23T09:55:00;100950.09;;;10.28;68.59
78892;BME280;68368;51.728;5.248;2024-03-23T09:57:06;100947.43;;;10.27;68.75
78892;BME280;68368;51.728;5.248;2024-03-23T09:59:10;100945.33;;;10.21;68.19
78892;BME280;68368;51.728;5.248;2024-03-23T10:01:15;100951.95;;;10.11;67.59
78892;BME280;68368;51.728;5.248;2024-03-23T10:03:20;100949.11;;;10.13;67.66
78892;BME280;68368;51.728;5.248;2024-03-23T10:05:25;100949.55;;;10.24;66.44
78892;BME280;68368;51.728;5.248;2024-03-23T10:07:33;100949.73;;;10.30;65.38
78892;BME280;68368;51.728;5.248;2024-03-23T10:09:39;100952.52;;;10.35;64.89
78892;BME280;68368;51.728;5.248;2024-03-23T10:11:44;100945.48;;;10.70;65.74
78892;BME280;68368;51.728;5.248;2024-03-23T10:13:49;100948.26;;;11.13;65.54
78892;BME280;68368;51.728;5.248;2024-03-23T10:15:58;100944.39;;;11.56;63.14
78892;BME280;68368;51.728;5.248;2024-03-23T10:18:18;100946.21;;;11.96;63.38
78892;BME280;68368;51.728;5.248;2024-03-23T10:20:24;100949.10;;;12.17;61.25
78892;BME280;68368;51.728;5.248;2024-03-23T10:22:29;100946.38;;;12.33;59.42
78892;BME280;68368;51.728;5.248;2024-03-23T10:24:34;100949.58;;;12.44;59.22
78892;BME280;68368;51.728;5.248;2024-03-23T10:26:39;100936.69;;;12.59;58.41
78892;BME280;68368;51.728;5.248;2024-03-23T10:28:56;100944.15;;;12.71;58.78
78892;BME280;68368;51.728;5.248;2024-03-23T10:31:11;100942.48;;;12.76;58.47
78892;BME280;68368;51.728;5.248;2024-03-23T10:33:16;100940.51;;;12.76;58.49
78892;BME280;68368;51.728;5.248;2024-03-23T10:35:22;100942.54;;;12.61;58.51
78892;BME280;68368;51.728;5.248;2024-03-23T10:37:27;100944.40;;;12.34;58.78
78892;BME280;68368;51.728;5.248;2024-03-23T10:39:33;100937.59;;;12.25;58.48
78892;BME280;68368;51.728;5.248;2024-03-23T10:41:38;100936.69;;;12.27;58.68
78892;BME280;68368;51.728;5.248;2024-03-23T10:43:44;100937.91;;;12.27;59.78
78892;BME280;68368;51.728;5.248;2024-03-23T10:45:50;100929.46;;;12.22;58.24
78892;BME280;68368;51.728;5.248;2024-03-23T10:47:57;100929.98;;;12.23;56.97
78892;BME280;68368;51.728;5.248;2024-03-23T10:50:02;100929.09;;;12.23;58.05
78892;BME280;68368;51.728;5.248;2024-03-23T10:52:08;100926.36;;;12.26;57.61
78892;BME280;68368;51.728;5.248;2024-03-23T10:54:13;100923.14;;;12.38;56.79
78892;BME280;68368;51.728;5.248;2024-03-23T10:56:21;100924.45;;;12.24;55.61
78892;BME280;68368;51.728;5.248;2024-03-23T10:58:31;100932.54;;;11.94;56.87
78892;BME280;68368;51.728;5.248;2024-03-23T11:00:37;100939.79;;;11.68;58.70
78892;BME280;68368;51.728;5.248;2024-03-23T11:02:42;100937.21;;;11.47;59.79
78892;BME280;68368;51.728;5.248;2024-03-23T11:04:47;100946.36;;;11.41;61.42
78892;BME280;68368;51.728;5.248;2024-03-23T11:06:52;100940.20;;;11.49;62.27
78892;BME280;68368;51.728;5.248;2024-03-23T11:09:01;100939.39;;;11.59;61.45
78892;BME280;68368;51.728;5.248;2024-03-23T11:11:20;100947.08;;;11.55;59.82
78892;BME280;68368;51.728;5.248;2024-03-23T11:13:27;100937.55;;;11.49;61.27
78892;BME280;68368;51.728;5.248;2024-03-23T11:15:32;100930.97;;;11.50;60.10
78892;BME280;68368;51.728;5.248;2024-03-23T11:17:37;100939.94;;;11.57;60.92
78892;BME280;68368;51.728;5.248;2024-03-23T11:19:42;100943.04;;;11.64;59.47
78892;BME280;68368;51.728;5.248;2024-03-23T11:21:56;100956.35;;;11.54;60.30
78892;BME280;68368;51.728;5.248;2024-03-23T11:24:17;100960.05;;;11.07;60.24
78892;BME280;68368;51.728;5.248;2024-03-23T11:26:25;100973.94;;;10.40;64.37
78892;BME280;68368;51.728;5.248;2024-03-23T11:28:36;100962.19;;;9.88;66.56
78892;BME280;68368;51.728;5.248;2024-03-23T11:30:45;100963.60;;;9.51;68.49
78892;BME280;68368;51.728;5.248;2024-03-23T11:32:51;100956.05;;;9.28;69.60
78892;BME280;68368;51.728;5.248;2024-03-23T11:34:56;100954.15;;;9.13;70.92
78892;BME280;68368;51.728;5.248;2024-03-23T11:37:07;100948.50;;;9.00;70.77
78892;BME280;68368;51.728;5.248;2024-03-23T11:39:19;100945.85;;;8.93;71.71
78892;BME280;68368;51.728;5.248;2024-03-23T11:41:24;100937.33;;;9.04;72.19
78892;BME280;68368;51.728;5.248;2024-03-23T11:43:29;100936.05;;;9.21;71.94
78892;BME280;68368;51.728;5.248;2024-03-23T11:45:38;100933.34;;;9.42;71.75
78892;BME280;68368;51.728;5.248;2024-03-23T11:47:43;100930.21;;;9.65;70.79
78892;BME280;68368;51.728;5.248;2024-03-23T11:49:50;100924.25;;;9.89;69.72
78892;BME280;68368;51.728;5.248;2024-03-23T11:51:56;100921.08;;;10.11;68.89